sensor_id;sensor_type;location;lat;lon;timestamp;pressure;altitude;pressure_sealevel;temperature;humidity
43488;BME280;29078;41.932;25.554;2023-11-21T00:01:14;99435.81;;;9.60;52.12
43488;BME280;29078;41.932;25.554;2023-11-21T00:03:40;99435.81;;;9.60;51.96
43488;BME280;29078;41.932;25.554;2023-11-21T00:06:05;99438.00;;;9.56;52.06
43488;BME280;29078;41.932;25.554;2023-11-21T00:08:33;99434.72;;;9.54;52.13
43488;BME280;29078;41.932;25.554;2023-11-21T00:10:59;99436.88;;;9.50;52.38
43488;BME280;29078;41.932;25.554;2023-11-21T00:13:25;99438.22;;;9.46;52.38
43488;BME280;29078;41.932;25.554;2023-11-21T00:15:50;99441.38;;;9.42;52.03
43488;BME280;29078;41.932;25.554;2023-11-21T00:18:16;99443.69;;;9.37;51.63
43488;BME280;29078;41.932;25.554;2023-11-21T00:20:41;99445.38;;;9.30;52.40
43488;BME280;29078;41.932;25.554;2023-11-21T00:23:07;99446.06;;;9.23;52.09
43488;BME280;29078;41.932;25.554;2023-11-21T00:25:32;99445.41;;;9.21;51.97
43488;BME280;29078;41.932;25.554;2023-11-21T00:27:57;99452.69;;;9.19;52.41
43488;BME280;29078;41.932;25.554;2023-11-21T00:30:22;99457.97;;;9.11;53.25
43488;BME280;29078;41.932;25.554;2023-11-21T00:32:48;99460.44;;;9.13;52.36
43488;BME280;29078;41.932;25.554;2023-11-21T00:35:13;99458.97;;;9.10;52.92
43488;BME280;29078;41.932;25.554;2023-11-21T00:37:39;99456.50;;;9.09;52.60
43488;BME280;29078;41.932;25.554;2023-11-21T00:40:04;99462.75;;;9.08;52.86
43488;BME280;29078;41.932;25.554;2023-11-21T00:42:30;99467.69;;;9.11;52.42
43488;BME280;29078;41.932;25.554;2023-11-21T00:44:58;99463.41;;;9.10;52.67
43488;BME280;29078;41.932;25.554;2023-11-21T00:47:23;99470.50;;;9.09;52.24
43488;BME280;29078;41.932;25.554;2023-11-21T00:49:48;99462.47;;;9.03;52.70
43488;BME280;29078;41.932;25.554;2023-11-21T00:52:14;99461.31;;;8.97;53.38
43488;BME280;29078;41.932;25.554;2023-11-21T00:54:39;99459.03;;;8.94;53.03
43488;BME280;29078;41.932;25.554;2023-11-21T00:57:05;99457.88;;;8.97;52.59
43488;BME280;29078;41.932;25.554;2023-11-21T00:59:30;99459.84;;;8.95;52.67
43488;BME280;29078;41.932;25.554;2023-11-21T01:01:56;99459.34;;;8.91;52.93
43488;BME280;29078;41.932;25.554;2023-11-21T01:04:21;99456.06;;;8.89;52.67
43488;BME280;29078;41.932;25.554;2023-11-21T01:06:46;99453.41;;;8.89;52.55
43488;BME280;29078;41.932;25.554;2023-11-21T01:09:12;99449.66;;;8.83;52.55
43488;BME280;29078;41.932;25.554;2023-11-21T01:11:37;99450.31;;;8.77;53.19
43488;BME280;29078;41.932;25.554;2023-11-21T01:14:04;99443.75;;;8.73;53.01
43488;BME280;29078;41.932;25.554;2023-11-21T01:16:29;99438.38;;;8.58;53.14
43488;BME280;29078;41.932;25.554;2023-11-21T01:18:55;99436.22;;;8.54;52.69
43488;BME280;29078;41.932;25.554;2023-11-21T01:21:20;99437.06;;;8.54;52.47
43488;BME280;29078;41.932;25.554;2023-11-21T01:23:45;99429.00;;;8.48;53.36
43488;BME280;29078;41.932;25.554;2023-11-21T01:26:11;99429.00;;;8.48;52.92
43488;BME280;29078;41.932;25.554;2023-11-21T01:28:36;99431.63;;;8.48;53.19
43488;BME280;29078;41.932;25.554;2023-11-21T01:31:02;99431.31;;;8.43;52.83
43488;BME280;29078;41.932;25.554;2023-11-21T01:33:27;99431.31;;;8.43;52.61
43488;BME280;29078;41.932;25.554;2023-11-21T01:35:53;99427.69;;;8.44;52.71
43488;BME280;29078;41.932;25.554;2023-11-21T01:38:20;99424.91;;;8.45;53.21
43488;BME280;29078;41.932;25.554;2023-11-21T01:40:45;99431.97;;;8.45;52.88
43488;BME280;29078;41.932;25.554;2023-11-21T01:43:10;99425.56;;;8.39;53.06
43488;BME280;29078;41.932;25.554;2023-11-21T01:45:35;99425.09;;;8.36;53.42
43488;BME280;29078;41.932;25.554;2023-11-21T01:48:01;99429.00;;;8.32;54.21
43488;BME280;29078;41.932;25.554;2023-11-21T01:50:27;99428.50;;;8.28;53.16
43488;BME280;29078;41.932;25.554;2023-11-21T01:52:53;99422.28;;;8.29;53.64
43488;BME280;29078;41.932;25.554;2023-11-21T01:55:19;99415.19;;;8.29;53.10
43488;BME280;29078;41.932;25.554;2023-11-21T01:57:45;99417.50;;;8.33;52.99
43488;BME280;29078;41.932;25.554;2023-11-21T02:00:11;99415.03;;;8.31;53.85
43488;BME280;29078;41.932;25.554;2023-11-21T02:02:44;99409.94;;;8.29;53.97
43488;BME280;29078;41.932;25.554;2023-11-21T02:05:13;99410.75;;;8.30;53.16
43488;BME280;29078;41.932;25.554;2023-11-21T02:07:39;99411.91;;;8.27;53.20
43488;BME280;29078;41.932;25.554;2023-11-21T02:10:05;99413.06;;;8.25;53.00
43488;BME280;29078;41.932;25.554;2023-11-21T02:12:31;99418.16;;;8.18;52.75
43488;BME280;29078;41.932;25.554;2023-11-21T02:14:56;99419.28;;;8.16;53.32
43488;BME280;29078;41.932;25.554;2023-11-21T02:17:21;99422.75;;;8.16;52.68
43488;BME280;29078;41.932;25.554;2023-11-21T02:19:47;99428.34;;;8.13;53.71
43488;BME280;29078;41.932;25.554;2023-11-21T02:22:16;99427.50;;;8.05;53.26
43488;BME280;29078;41.932;25.554;2023-11-21T02:24:42;99426.03;;;7.94;53.93
43488;BME280;29078;41.932;25.554;2023-11-21T02:27:07;99433.44;;;7.90;53.65
43488;BME280;29078;41.932;25.554;2023-11-21T02:29:33;99425.88;;;7.87;54.13
43488;BME280;29078;41.932;25.554;2023-11-21T02:31:58;99422.25;;;7.80;54.66
43488;BME280;29078;41.932;25.554;2023-11-21T02:34:24;99420.44;;;7.81;54.25
43488;BME280;29078;41.932;25.554;2023-11-21T02:36:50;99424.22;;;7.86;53.41
43488;BME280;29078;41.932;25.554;2023-11-21T02:39:16;99419.78;;;7.87;53.90
43488;BME280;29078;41.932;25.554;2023-11-21T02:41:42;99413.38;;;7.89;53.68
43488;BME280;29078;41.932;25.554;2023-11-21T02:44:07;99412.88;;;7.86;54.31
43488;BME280;29078;41.932;25.554;2023-11-21T02:46:33;99399.41;;;7.89;54.11
43488;BME280;29078;41.932;25.554;2023-11-21T02:48:59;99405.00;;;7.94;54.37
43488;BME280;29078;41.932;25.554;2023-11-21T02:51:24;99402.03;;;7.97;53.83
43488;BME280;29078;41.932;25.554;2023-11-21T02:53:50;99400.72;;;7.93;54.76
43488;BME280;29078;41.932;25.554;2023-11-21T02:56:16;99407.63;;;7.86;54.63
43488;BME280;29078;41.932;25.554;2023-11-21T02:58:42;99401.38;;;7.87;54.27
43488;BME280;29078;41.932;25.554;2023-11-21T03:01:09;99405.00;;;7.86;55.14
43488;BME280;29078;41.932;25.554;2023-11-21T03:03:34;99400.25;;;7.81;53.94
43488;BME280;29078;41.932;25.554;2023-11-21T03:05:59;99405.50;;;7.81;54.66
43488;BME280;29078;41.932;25.554;2023-11-21T03:08:25;99402.03;;;7.81;54.28
43488;BME280;29078;41.932;25.554;2023-11-21T03:10:50;99405.97;;;7.77;55.44
43488;BME280;29078;41.932;25.554;2023-11-21T03:13:15;99405.81;;;7.78;54.76
43488;BME280;29078;41.932;25.554;2023-11-21T03:15:41;99414.34;;;7.72;55.15
43488;BME280;29078;41.932;25.554;2023-11-21T03:18:07;99409.59;;;7.68;55.03
43488;BME280;29078;41.932;25.554;2023-11-21T03:20:33;99411.56;;;7.65;55.46
43488;BME280;29078;41.932;25.554;2023-11-21T03:22:59;99409.91;;;7.64;56.16
43488;BME280;29078;41.932;25.554;2023-11-21T03:25:25;99415.66;;;7.68;55.86
43488;BME280;29078;41.932;25.554;2023-11-21T03:27:50;99417.81;;;7.64;56.32
43488;BME280;29078;41.932;25.554;2023-11-21T03:30:15;99423.06;;;7.64;55.51
43488;BME280;29078;41.932;25.554;2023-11-21T03:32:41;99425.84;;;7.63;55.88
43488;BME280;29078;41.932;25.554;2023-11-21T03:35:07;99418.13;;;7.61;55.94
43488;BME280;29078;41.932;25.554;2023-11-21T03:37:32;99425.50;;;7.58;55.58
43488;BME280;29078;41.932;25.554;2023-11-21T03:39:57;99425.00;;;7.54;56.42
43488;BME280;29078;41.932;25.554;2023-11-21T03:42:23;99425.50;;;7.58;55.46
43488;BME280;29078;41.932;25.554;2023-11-21T03:44:48;99414.34;;;7.64;55.75
43488;BME280;29078;41.932;25.554;2023-11-21T03:47:14;99420.44;;;7.64;55.95
43488;BME280;29078;41.932;25.554;2023-11-21T03:49:39;99417.31;;;7.69;55.36
43488;BME280;29078;41.932;25.554;2023-11-21T03:52:05;99412.06;;;7.69;55.53
43488;BME280;29078;41.932;25.554;2023-11-21T03:54:30;99410.75;;;7.65;55.58
43488;BME280;29078;41.932;25.554;2023-11-21T03:56:56;99416.66;;;7.59;56.01
43488;BME280;29078;41.932;25.554;2023-11-21T03:59:21;99404.16;;;7.61;56.33
43488;BME280;29078;41.932;25.554;2023-11-21T04:01:49;99401.38;;;7.54;56.88
43488;BME280;29078;41.932;25.554;2023-11-21T04:04:14;99401.84;;;7.50;57.20
43488;BME280;29078;41.932;25.554;2023-11-21T04:06:40;99405.97;;;7.52;56.67
43488;BME280;29078;41.932;25.554;2023-11-21T04:09:06;99398.25;;;7.51;57.02
43488;BME280;29078;41.932;25.554;2023-11-21T04:11:31;99412.03;;;7.53;57.34
43488;BME280;29078;41.932;25.554;2023-11-21T04:13:56;99406.78;;;7.53;56.39
43488;BME280;29078;41.932;25.554;2023-11-21T04:16:21;99410.88;;;7.55;56.75
43488;BME280;29078;41.932;25.554;2023-11-21T04:18:47;99405.47;;;7.57;56.94
43488;BME280;29078;41.932;25.554;2023-11-21T04:21:12;99404.00;;;7.54;57.35
43488;BME280;29078;41.932;25.554;2023-11-21T04:23:37;99407.59;;;7.53;57.23
43488;BME280;29078;41.932;25.554;2023-11-21T04:26:03;99409.25;;;7.54;56.90
43488;BME280;29078;41.932;25.554;2023-11-21T04:28:28;99423.88;;;7.57;56.02
43488;BME280;29078;41.932;25.554;2023-11-21T04:30:53;99432.41;;;7.59;55.25
43488;BME280;29078;41.932;25.554;2023-11-21T04:33:19;99435.84;;;7.51;56.82
43488;BME280;29078;41.932;25.554;2023-11-21T04:35:44;99445.03;;;7.47;57.30
43488;BME280;29078;41.932;25.554;2023-11-21T04:38:09;99439.28;;;7.44;56.55
43488;BME280;29078;41.932;25.554;2023-11-21T04:40:35;99435.13;;;7.41;55.69
43488;BME280;29078;41.932;25.554;2023-11-21T04:43:00;99430.19;;;7.38;56.85
43488;BME280;29078;41.932;25.554;2023-11-21T04:45:26;99435.78;;;7.35;56.35
43488;BME280;29078;41.932;25.554;2023-11-21T04:47:51;99435.09;;;7.33;56.99
43488;BME280;29078;41.932;25.554;2023-11-21T04:50:17;99430.00;;;7.31;56.88
43488;BME280;29078;41.932;25.554;2023-11-21T04:52:43;99437.22;;;7.29;56.47
43488;BME280;29078;41.932;25.554;2023-11-21T04:55:09;99441.81;;;7.27;56.47
43488;BME280;29078;41.932;25.554;2023-11-21T04:57:35;99451.81;;;7.24;56.67
43488;BME280;29078;41.932;25.554;2023-11-21T05:00:00;99446.09;;;7.28;56.56
43488;BME280;29078;41.932;25.554;2023-11-21T05:02:26;99437.06;;;7.31;56.27
43488;BME280;29078;41.932;25.554;2023-11-21T05:04:51;99454.63;;;7.30;56.97
43488;BME280;29078;41.932;25.554;2023-11-21T05:07:18;99444.13;;;7.30;56.69
43488;BME280;29078;41.932;25.554;2023-11-21T05:09:43;99440.69;;;7.30;56.72
43488;BME280;29078;41.932;25.554;2023-11-21T05:12:12;99433.13;;;7.27;56.87
43488;BME280;29078;41.932;25.554;2023-11-21T05:14:37;99430.50;;;7.27;57.29
43488;BME280;29078;41.932;25.554;2023-11-21T05:17:03;99442.47;;;7.29;57.31
43488;BME280;29078;41.932;25.554;2023-11-21T05:19:29;99444.28;;;7.29;57.13
43488;BME280;29078;41.932;25.554;2023-11-21T05:21:54;99451.03;;;7.31;57.27
43488;BME280;29078;41.932;25.554;2023-11-21T05:24:20;99450.53;;;7.36;56.21
43488;BME280;29078;41.932;25.554;2023-11-21T05:26:45;99454.50;;;7.40;56.15
43488;BME280;29078;41.932;25.554;2023-11-21T05:29:10;99458.47;;;7.44;54.95
43488;BME280;29078;41.932;25.554;2023-11-21T05:31:36;99462.75;;;7.45;55.15
43488;BME280;29078;41.932;25.554;2023-11-21T05:34:01;99470.47;;;7.47;54.76
43488;BME280;29078;41.932;25.554;2023-11-21T05:36:26;99471.78;;;7.51;54.83
43488;BME280;29078;41.932;25.554;2023-11-21T05:38:52;99472.78;;;7.50;55.28
43488;BME280;29078;41.932;25.554;2023-11-21T05:41:17;99467.69;;;7.48;55.59
43488;BME280;29078;41.932;25.554;2023-11-21T05:43:42;99473.44;;;7.52;54.92
43488;BME280;29078;41.932;25.554;2023-11-21T05:46:08;99462.44;;;7.56;54.78
43488;BME280;29078;41.932;25.554;2023-11-21T05:48:34;99466.06;;;7.63;54.85
43488;BME280;29078;41.932;25.554;2023-11-21T05:51:02;99462.97;;;7.68;54.77
43488;BME280;29078;41.932;25.554;2023-11-21T05:53:27;99458.03;;;7.65;55.99
43488;BME280;29078;41.932;25.554;2023-11-21T05:55:52;99457.88;;;7.67;55.66
43488;BME280;29078;41.932;25.554;2023-11-21T05:58:18;99462.97;;;7.68;55.46
43488;BME280;29078;41.932;25.554;2023-11-21T06:00:43;99465.91;;;7.65;56.41
43488;BME280;29078;41.932;25.554;2023-11-21T06:03:08;99461.00;;;7.70;55.39
43488;BME280;29078;41.932;25.554;2023-11-21T06:05:33;99456.75;;;7.77;54.88
43488;BME280;29078;41.932;25.554;2023-11-21T06:07:59;99456.25;;;7.82;55.26
43488;BME280;29078;41.932;25.554;2023-11-21T06:10:26;99473.50;;;7.84;55.91
43488;BME280;29078;41.932;25.554;2023-11-21T06:12:51;99457.91;;;7.91;55.59
43488;BME280;29078;41.932;25.554;2023-11-21T06:15:17;99460.72;;;7.97;55.45
43488;BME280;29078;41.932;25.554;2023-11-21T06:17:44;99462.03;;;8.02;55.69
43488;BME280;29078;41.932;25.554;2023-11-21T06:20:14;99468.09;;;8.02;56.04
43488;BME280;29078;41.932;25.554;2023-11-21T06:22:41;99470.56;;;8.04;55.36
43488;BME280;29078;41.932;25.554;2023-11-21T06:25:06;99475.66;;;8.13;55.50
43488;BME280;29078;41.932;25.554;2023-11-21T06:27:33;99464.81;;;8.16;56.30
43488;BME280;29078;41.932;25.554;2023-11-21T06:29:59;99468.13;;;8.18;56.33
43488;BME280;29078;41.932;25.554;2023-11-21T06:32:24;99471.25;;;8.22;55.01
43488;BME280;29078;41.932;25.554;2023-11-21T06:34:50;99474.22;;;8.27;54.29
43488;BME280;29078;41.932;25.554;2023-11-21T06:37:15;99471.25;;;8.30;56.25
43488;BME280;29078;41.932;25.554;2023-11-21T06:39:41;99478.69;;;8.35;55.28
43488;BME280;29078;41.932;25.554;2023-11-21T06:42:07;99477.19;;;8.40;55.28
43488;BME280;29078;41.932;25.554;2023-11-21T06:44:32;99472.94;;;8.39;56.23
43488;BME280;29078;41.932;25.554;2023-11-21T06:46:58;99473.41;;;8.43;56.29
43488;BME280;29078;41.932;25.554;2023-11-21T06:49:23;99474.72;;;8.47;56.55
43488;BME280;29078;41.932;25.554;2023-11-21T06:51:49;99466.00;;;8.54;56.08
43488;BME280;29078;41.932;25.554;2023-11-21T06:54:14;99465.34;;;8.60;56.78
43488;BME280;29078;41.932;25.554;2023-11-21T06:56:39;99454.47;;;8.64;56.09
43488;BME280;29078;41.932;25.554;2023-11-21T06:59:05;99451.34;;;8.68;56.02
43488;BME280;29078;41.932;25.554;2023-11-21T07:01:30;99453.13;;;8.76;55.64
43488;BME280;29078;41.932;25.554;2023-11-21T07:03:59;99445.38;;;8.82;55.38
43488;BME280;29078;41.932;25.554;2023-11-21T07:06:24;99450.31;;;8.94;53.96
43488;BME280;29078;41.932;25.554;2023-11-21T07:08:49;99445.84;;;9.02;55.57
43488;BME280;29078;41.932;25.554;2023-11-21T07:11:15;99446.44;;;9.12;54.43
43488;BME280;29078;41.932;25.554;2023-11-21T07:13:40;99447.56;;;9.18;54.51
43488;BME280;29078;41.932;25.554;2023-11-21T07:16:05;99449.19;;;9.27;55.43
43488;BME280;29078;41.932;25.554;2023-11-21T07:18:31;99447.50;;;9.34;56.00
43488;BME280;29078;41.932;25.554;2023-11-21T07:20:56;99458.16;;;9.41;55.53
43488;BME280;29078;41.932;25.554;2023-11-21T07:23:23;99452.03;;;9.48;54.61
43488;BME280;29078;41.932;25.554;2023-11-21T07:25:49;99452.97;;;9.55;55.27
43488;BME280;29078;41.932;25.554;2023-11-21T07:28:14;99446.84;;;9.63;55.19
43488;BME280;29078;41.932;25.554;2023-11-21T07:30:40;99444.38;;;9.70;55.72
43488;BME280;29078;41.932;25.554;2023-11-21T07:33:05;99435.56;;;9.77;55.89
43488;BME280;29078;41.932;25.554;2023-11-21T07:35:31;99430.41;;;9.84;55.86
43488;BME280;29078;41.932;25.554;2023-11-21T07:37:56;99433.81;;;9.93;55.04
43488;BME280;29078;41.932;25.554;2023-11-21T07:40:22;99434.09;;;9.98;55.78
43488;BME280;29078;41.932;25.554;2023-11-21T07:42:47;99431.59;;;10.04;55.15
43488;BME280;29078;41.932;25.554;2023-11-21T07:45:13;99445.25;;;10.08;55.95
43488;BME280;29078;41.932;25.554;2023-11-21T07:47:40;99443.25;;;10.10;55.75
43488;BME280;29078;41.932;25.554;2023-11-21T07:50:05;99446.69;;;10.10;55.43
43488;BME280;29078;41.932;25.554;2023-11-21T07:52:32;99445.69;;;10.11;55.31
43488;BME280;29078;41.932;25.554;2023-11-21T07:54:57;99448.63;;;10.16;54.00
43488;BME280;29078;41.932;25.554;2023-11-21T07:57:23;99441.53;;;10.17;54.82
43488;BME280;29078;41.932;25.554;2023-11-21T07:59:48;99429.16;;;10.17;54.11
43488;BME280;29078;41.932;25.554;2023-11-21T08:02:13;99438.22;;;10.23;54.15
43488;BME280;29078;41.932;25.554;2023-11-21T08:04:41;99439.03;;;10.24;54.16
43488;BME280;29078;41.932;25.554;2023-11-21T08:07:06;99437.84;;;10.26;56.13
43488;BME280;29078;41.932;25.554;2023-11-21T08:09:31;99436.31;;;10.32;56.31
43488;BME280;29078;41.932;25.554;2023-11-21T08:11:58;99437.59;;;10.36;54.95
43488;BME280;29078;41.932;25.554;2023-11-21T08:14:25;99431.81;;;10.40;55.91
43488;BME280;29078;41.932;25.554;2023-11-21T08:16:51;99434.09;;;10.43;56.33
43488;BME280;29078;41.932;25.554;2023-11-21T08:19:17;99423.63;;;10.50;56.40
43488;BME280;29078;41.932;25.554;2023-11-21T08:21:43;99425.56;;;10.56;55.44
43488;BME280;29078;41.932;25.554;2023-11-21T08:24:08;99423.84;;;10.63;55.80
43488;BME280;29078;41.932;25.554;2023-11-21T08:26:36;99425.56;;;10.71;56.25
43488;BME280;29078;41.932;25.554;2023-11-21T08:29:01;99431.56;;;10.79;56.14
43488;BME280;29078;41.932;25.554;2023-11-21T08:31:26;99421.75;;;10.88;56.74
43488;BME280;29078;41.932;25.554;2023-11-21T08:33:52;99422.28;;;10.98;56.26
43488;BME280;29078;41.932;25.554;2023-11-21T08:36:20;99415.06;;;11.07;56.44
43488;BME280;29078;41.932;25.554;2023-11-21T08:38:46;99420.28;;;11.15;56.14
43488;BME280;29078;41.932;25.554;2023-11-21T08:41:11;99407.59;;;11.25;56.02
43488;BME280;29078;41.932;25.554;2023-11-21T08:43:37;99408.50;;;11.32;54.52
43488;BME280;29078;41.932;25.554;2023-11-21T08:46:05;99402.47;;;11.38;54.35
43488;BME280;29078;41.932;25.554;2023-11-21T08:48:31;99402.91;;;11.42;56.12
43488;BME280;29078;41.932;25.554;2023-11-21T08:50:56;99388.63;;;11.36;56.21
43488;BME280;29078;41.932;25.554;2023-11-21T08:53:21;99406.50;;;11.56;54.97
43488;BME280;29078;41.932;25.554;2023-11-21T08:55:47;99391.16;;;11.66;55.18
43488;BME280;29078;41.932;25.554;2023-11-21T08:58:13;99382.09;;;11.75;55.64
43488;BME280;29078;41.932;25.554;2023-11-21T09:00:39;99373.84;;;11.85;55.68
43488;BME280;29078;41.932;25.554;2023-11-21T09:03:04;99374.19;;;11.96;54.64
43488;BME280;29078;41.932;25.554;2023-11-21T09:05:33;99364.28;;;12.05;56.72
43488;BME280;29078;41.932;25.554;2023-11-21T09:07:58;99363.75;;;12.16;54.75
43488;BME280;29078;41.932;25.554;2023-11-21T09:10:24;99368.09;;;12.24;55.14
43488;BME280;29078;41.932;25.554;2023-11-21T09:12:50;99359.41;;;12.36;54.58
43488;BME280;29078;41.932;25.554;2023-11-21T09:15:17;99360.31;;;12.50;53.59
43488;BME280;29078;41.932;25.554;2023-11-21T09:17:42;99354.25;;;12.56;55.14
43488;BME280;29078;41.932;25.554;2023-11-21T09:20:08;99354.72;;;12.66;55.00
43488;BME280;29078;41.932;25.554;2023-11-21T09:22:35;99358.84;;;12.76;55.31
43488;BME280;29078;41.932;25.554;2023-11-21T09:25:00;99346.22;;;12.78;55.94
43488;BME280;29078;41.932;25.554;2023-11-21T09:27:25;99344.19;;;12.80;55.71
43488;BME280;29078;41.932;25.554;2023-11-21T09:29:51;99347.06;;;12.85;54.11
43488;BME280;29078;41.932;25.554;2023-11-21T09:32:17;99345.66;;;12.89;56.79
43488;BME280;29078;41.932;25.554;2023-11-21T09:34:43;99339.19;;;12.98;55.56
43488;BME280;29078;41.932;25.554;2023-11-21T09:37:09;99330.66;;;13.09;54.23
43488;BME280;29078;41.932;25.554;2023-11-21T09:39:34;99330.50;;;13.17;56.14
43488;BME280;29078;41.932;25.554;2023-11-21T09:44:41;99316.28;;;13.38;54.98
43488;BME280;29078;41.932;25.554;2023-11-21T09:47:10;99313.06;;;13.49;55.09
43488;BME280;29078;41.932;25.554;2023-11-21T09:49:35;99312.66;;;13.59;56.87
43488;BME280;29078;41.932;25.554;2023-11-21T09:52:02;99304.91;;;13.71;54.14
43488;BME280;29078;41.932;25.554;2023-11-21T09:54:29;99306.94;;;13.82;55.27
43488;BME280;29078;41.932;25.554;2023-11-21T09:56:54;99306.13;;;13.94;54.72
43488;BME280;29078;41.932;25.554;2023-11-21T09:59:20;99292.22;;;14.06;55.75
43488;BME280;29078;41.932;25.554;2023-11-21T10:01:46;99289.97;;;14.22;54.83
43488;BME280;29078;41.932;25.554;2023-11-21T10:04:13;99284.03;;;14.34;54.89
43488;BME280;29078;41.932;25.554;2023-11-21T10:06:41;99280.31;;;14.48;53.97
43488;BME280;29078;41.932;25.554;2023-11-21T10:09:10;99278.69;;;14.53;54.75
43488;BME280;29078;41.932;25.554;2023-11-21T10:11:40;99267.03;;;14.54;56.00
43488;BME280;29078;41.932;25.554;2023-11-21T10:14:06;99265.56;;;14.58;56.05
43488;BME280;29078;41.932;25.554;2023-11-21T10:16:33;99258.59;;;14.64;55.20
43488;BME280;29078;41.932;25.554;2023-11-21T10:18:58;99261.03;;;14.72;54.88
43488;BME280;29078;41.932;25.554;2023-11-21T10:21:24;99258.94;;;14.81;54.27
43488;BME280;29078;41.932;25.554;2023-11-21T10:23:50;99246.84;;;14.91;54.75
43488;BME280;29078;41.932;25.554;2023-11-21T10:26:16;99243.53;;;14.96;55.93
43488;BME280;29078;41.932;25.554;2023-11-21T10:28:55;99246.75;;;15.05;55.18
43488;BME280;29078;41.932;25.554;2023-11-21T10:31:21;99244.66;;;15.13;54.52
43488;BME280;29078;41.932;25.554;2023-11-21T10:33:49;99243.59;;;15.21;54.85
43488;BME280;29078;41.932;25.554;2023-11-21T10:36:19;99241.91;;;15.26;54.69
43488;BME280;29078;41.932;25.554;2023-11-21T10:38:49;99234.31;;;15.30;55.13
43488;BME280;29078;41.932;25.554;2023-11-21T10:41:18;99223.63;;;15.37;54.49
43488;BME280;29078;41.932;25.554;2023-11-21T10:43:43;99225.84;;;15.40;54.67
43488;BME280;29078;41.932;25.554;2023-11-21T10:46:09;99220.69;;;15.45;55.13
43488;BME280;29078;41.932;25.554;2023-11-21T10:48:34;99210.06;;;15.45;55.40
43488;BME280;29078;41.932;25.554;2023-11-21T10:51:01;99216.56;;;15.49;54.22
43488;BME280;29078;41.932;25.554;2023-11-21T10:53:31;99195.88;;;15.51;54.90
43488;BME280;29078;41.932;25.554;2023-11-21T10:56:05;99199.94;;;15.53;54.91
43488;BME280;29078;41.932;25.554;2023-11-21T10:58:31;99197.88;;;15.55;54.41
43488;BME280;29078;41.932;25.554;2023-11-21T11:00:57;99205.03;;;15.55;55.92
43488;BME280;29078;41.932;25.554;2023-11-21T11:03:23;99189.69;;;15.57;55.35
43488;BME280;29078;41.932;25.554;2023-11-21T11:05:49;99181.91;;;15.55;55.68
43488;BME280;29078;41.932;25.554;2023-11-21T11:08:16;99181.69;;;15.57;55.34
43488;BME280;29078;41.932;25.554;2023-11-21T11:10:45;99171.91;;;15.57;55.92
43488;BME280;29078;41.932;25.554;2023-11-21T11:13:11;99167.78;;;15.55;54.77
43488;BME280;29078;41.932;25.554;2023-11-21T11:15:40;99171.28;;;15.55;54.67
43488;BME280;29078;41.932;25.554;2023-11-21T11:18:05;99182.31;;;15.59;53.83
43488;BME280;29078;41.932;25.554;2023-11-21T11:20:36;99177.41;;;15.56;53.06
43488;BME280;29078;41.932;25.554;2023-11-21T11:28:20;99177.16;;;15.39;51.49
43488;BME280;29078;41.932;25.554;2023-11-21T11:35:43;99177.31;;;15.19;50.30
43488;BME280;29078;41.932;25.554;2023-11-21T11:38:12;99170.38;;;15.18;51.69
43488;BME280;29078;41.932;25.554;2023-11-21T11:40:41;99170.00;;;15.15;51.43
43488;BME280;29078;41.932;25.554;2023-11-21T11:43:10;99160.97;;;15.16;51.75
43488;BME280;29078;41.932;25.554;2023-11-21T11:45:35;99163.41;;;15.17;51.63
43488;BME280;29078;41.932;25.554;2023-11-21T11:48:01;99161.16;;;15.21;51.97
43488;BME280;29078;41.932;25.554;2023-11-21T11:50:27;99154.56;;;15.23;52.09
43488;BME280;29078;41.932;25.554;2023-11-21T11:52:52;99150.28;;;15.22;51.63
43488;BME280;29078;41.932;25.554;2023-11-21T11:55:23;99147.84;;;15.21;51.92
43488;BME280;29078;41.932;25.554;2023-11-21T11:57:49;99154.19;;;15.20;51.92
43488;BME280;29078;41.932;25.554;2023-11-21T12:00:21;99148.06;;;15.19;51.79
43488;BME280;29078;41.932;25.554;2023-11-21T12:03:08;99149.91;;;15.19;51.06
43488;BME280;29078;41.932;25.554;2023-11-21T12:05:34;99147.03;;;15.20;51.82
43488;BME280;29078;41.932;25.554;2023-11-21T12:08:09;99147.03;;;15.20;51.40
43488;BME280;29078;41.932;25.554;2023-11-21T12:10:35;99138.88;;;15.15;51.74
43488;BME280;29078;41.932;25.554;2023-11-21T12:13:08;99137.25;;;15.14;52.09
43488;BME280;29078;41.932;25.554;2023-11-21T12:15:35;99129.50;;;15.13;51.59
43488;BME280;29078;41.932;25.554;2023-11-21T12:18:00;99120.94;;;15.11;50.95
43488;BME280;29078;41.932;25.554;2023-11-21T12:20:26;99117.47;;;15.10;51.11
43488;BME280;29078;41.932;25.554;2023-11-21T12:22:52;99105.41;;;15.08;50.54
43488;BME280;29078;41.932;25.554;2023-11-21T12:25:18;99096.03;;;15.05;52.92
43488;BME280;29078;41.932;25.554;2023-11-21T12:27:45;99087.03;;;15.06;52.62
43488;BME280;29078;41.932;25.554;2023-11-21T12:30:11;99086.16;;;15.12;53.41
43488;BME280;29078;41.932;25.554;2023-11-21T12:32:38;99078.31;;;15.17;52.88
43488;BME280;29078;41.932;25.554;2023-11-21T12:35:04;99074.19;;;15.21;53.41
43488;BME280;29078;41.932;25.554;2023-11-21T12:37:31;99072.94;;;15.24;54.76
43488;BME280;29078;41.932;25.554;2023-11-21T12:39:56;99079.06;;;15.24;54.66
43488;BME280;29078;41.932;25.554;2023-11-21T12:42:23;99073.75;;;15.24;57.18
43488;BME280;29078;41.932;25.554;2023-11-21T12:44:48;99063.34;;;15.23;55.53
43488;BME280;29078;41.932;25.554;2023-11-21T12:47:16;99069.69;;;15.22;55.51
43488;BME280;29078;41.932;25.554;2023-11-21T12:49:41;99061.94;;;15.20;58.06
43488;BME280;29078;41.932;25.554;2023-11-21T12:52:09;99074.63;;;15.18;56.44
43488;BME280;29078;41.932;25.554;2023-11-21T12:54:34;99068.50;;;15.18;56.70
43488;BME280;29078;41.932;25.554;2023-11-21T12:57:00;99066.50;;;15.13;56.41
43488;BME280;29078;41.932;25.554;2023-11-21T12:59:26;99070.19;;;15.12;57.85
43488;BME280;29078;41.932;25.554;2023-11-21T13:01:53;99079.78;;;15.13;55.25